Time;durP1;ratioP1;P1;durP2;ratioP2;P2;SDS_P1;SDS_P2;PMS_P1;PMS_P2;Temp;Humidity;BMP_temperature;BMP_pressure;BME280_temperature;BME280_humidity;BME280_pressure;Samples;Min_cycle;Max_cycle;Signal;HPM_P1;HPM_P2
2021/10/16 00:00:42;;;;;;;9.30;4.53;;;;;;;7.93;100.00;100783.49;4919269;60;1141081;-88
2021/10/16 00:05:47;;;;;;;17.80;4.10;;;;;;;7.92;100.00;100782.64;4919090;60;1139097;-88
2021/10/16 00:10:53;;;;;;;8.50;3.10;;;;;;;7.88;100.00;100775.02;4919344;60;1141127;-89
2021/10/16 00:15:59;;;;;;;12.97;4.00;;;;;;;7.87;100.00;100782.08;4919273;60;1139206;-89
2021/10/16 00:21:06;;;;;;;14.33;3.23;;;;;;;7.88;100.00;100781.61;4919091;60;1141271;-90
2021/10/16 00:26:11;;;;;;;10.83;3.57;;;;;;;7.89;100.00;100792.52;4913192;60;1141101;-90
2021/10/16 00:31:17;;;;;;;14.43;3.13;;;;;;;7.91;100.00;100798.54;4890901;60;1141070;-88
2021/10/16 00:36:24;;;;;;;16.63;2.97;;;;;;;7.86;100.00;100797.50;4890762;60;1141310;-86
2021/10/16 00:41:29;;;;;;;11.43;3.23;;;;;;;7.82;100.00;100805.67;4890921;60;1141076;-87
2021/10/16 00:46:35;;;;;;;15.23;5.70;;;;;;;7.78;100.00;100805.50;4890979;60;1141050;-91
2021/10/16 00:51:42;;;;;;;9.80;4.00;;;;;;;7.74;100.00;100817.53;4891143;60;1140979;-87
2021/10/16 00:56:51;;;;;;;7.37;2.90;;;;;;;7.66;100.00;100814.98;4901424;60;1138988;-88
2021/10/16 01:01:57;;;;;;;12.37;3.40;;;;;;;7.66;100.00;100814.98;4913641;60;1138997;-87
2021/10/16 01:07:02;;;;;;;5.27;2.30;;;;;;;7.62;100.00;100814.34;4913556;60;1141066;-87
2021/10/16 01:12:11;;;;;;;8.57;2.23;;;;;;;7.61;100.00;100811.80;4913759;60;1136933;-89
2021/10/16 01:17:21;;;;;;;11.40;3.35;;;;;;;7.57;100.00;100815.08;4914206;60;1137100;-88
2021/10/16 01:22:28;;;;;;;12.77;3.50;;;;;;;7.52;100.00;100821.08;4913900;60;1139028;-89
2021/10/16 01:27:34;;;;;;;14.13;2.90;;;;;;;7.49;100.00;100816.45;4875553;60;1138978;-89
2021/10/16 01:32:42;;;;;;;10.83;2.27;;;;;;;7.45;100.00;100826.34;4833415;61;1138962;-89
2021/10/16 01:37:51;;;;;;;14.40;3.37;;;;;;;7.43;100.00;100828.22;4833386;61;1139139;-87
2021/10/16 01:43:01;;;;;;;9.00;2.72;;;;;;;7.40;100.00;100825.77;4833140;61;1138994;-87
2021/10/16 01:48:10;;;;;;;7.17;2.17;;;;;;;7.37;100.00;100827.25;4833699;61;1137251;-88
2021/10/16 01:53:18;;;;;;;13.77;2.70;;;;;;;7.33;100.00;100828.39;4833513;61;1136875;-87
2021/10/16 01:58:26;;;;;;;18.63;4.60;;;;;;;7.29;100.00;100825.09;4835940;60;1138997;-88
2021/10/16 02:03:36;;;;;;;12.90;3.83;;;;;;;7.26;100.00;100821.79;4896803;60;1139057;-89
2021/10/16 02:08:44;;;;;;;12.53;3.60;;;;;;;7.20;100.00;100829.56;4919153;60;1139059;-88
2021/10/16 02:13:50;;;;;;;9.25;3.33;;;;;;;7.16;100.00;100829.38;4919292;60;1139208;-87
2021/10/16 02:18:57;;;;;;;12.70;3.57;;;;;;;7.12;100.00;100838.38;4919755;60;1134868;-88
2021/10/16 02:24:05;;;;;;;14.73;3.33;;;;;;;7.09;100.00;100842.50;4919353;60;1141147;-88
2021/10/16 02:29:13;;;;;;;8.17;3.33;;;;;;;7.05;100.00;100843.60;4894551;60;1141426;-88
2021/10/16 02:34:20;;;;;;;10.63;3.00;;;;;;;7.02;100.00;100846.44;4889867;60;1139235;-89
2021/10/16 02:39:31;;;;;;;14.13;3.53;;;;;;;6.99;100.00;100851.86;4890576;60;1141157;-88
2021/10/16 02:44:37;;;;;;;6.20;2.50;;;;;;;6.95;100.00;100852.50;4890854;60;1141077;-88
2021/10/16 02:49:43;;;;;;;7.70;3.13;;;;;;;6.90;100.00;100862.42;4890927;60;1138956;-87
2021/10/16 02:54:51;;;;;;;16.50;2.60;;;;;;;6.86;100.00;100867.97;4890862;60;1139159;-88
2021/10/16 02:59:59;;;;;;;11.30;2.70;;;;;;;6.84;100.00;100864.57;4890510;60;1141431;-88
2021/10/16 03:05:06;;;;;;;5.80;2.33;;;;;;;6.81;100.00;100868.68;4890984;60;1140978;-87
2021/10/16 03:10:12;;;;;;;12.60;3.57;;;;;;;6.77;100.00;100868.47;4891674;60;1138895;-88
2021/10/16 03:15:18;;;;;;;10.73;3.00;;;;;;;6.73;100.00;100873.50;4855401;60;1141211;-89
2021/10/16 03:20:25;;;;;;;10.93;2.83;;;;;;;6.70;100.00;100869.30;4890727;60;1141070;-89
2021/10/16 03:25:33;;;;;;;14.93;2.77;;;;;;;6.68;100.00;100878.58;4892349;60;1141044;-85
2021/10/16 03:30:39;;;;;;;16.80;3.63;;;;;;;6.63;100.00;100879.75;4910350;60;1140373;-85
2021/10/16 03:35:47;;;;;;;11.07;4.60;;;;;;;6.57;100.00;100880.92;4887517;60;1141054;-85
2021/10/16 03:40:53;;;;;;;9.83;3.93;;;;;;;6.60;100.00;100889.11;4913852;60;1140963;-84
2021/10/16 03:46:00;;;;;;;8.23;2.53;;;;;;;6.60;100.00;100897.84;4910004;60;1138902;-85
2021/10/16 03:51:06;;;;;;;13.27;2.70;;;;;;;6.60;100.00;100897.84;4913986;60;1139025;-86
2021/10/16 03:56:12;;;;;;;6.20;1.80;;;;;;;6.62;100.00;100910.91;4913847;60;1141071;-86
2021/10/16 04:01:18;;;;;;;14.87;2.97;;;;;;;6.61;100.00;100914.00;4905662;60;1139217;-84
2021/10/16 04:06:24;;;;;;;8.95;2.85;;;;;;;6.57;100.00;100915.09;4903856;60;1141102;-85
2021/10/16 04:11:30;;;;;;;11.00;3.10;;;;;;;6.57;100.00;100920.84;4903776;60;1139092;-85
2021/10/16 04:16:37;;;;;;;9.03;3.50;;;;;;;6.51;100.00;100927.27;4903910;60;1141054;-85
2021/10/16 04:21:43;;;;;;;16.57;3.45;;;;;;;6.46;100.00;100928.44;4903617;60;1139235;-84
2021/10/16 04:26:49;;;;;;;14.37;3.70;;;;;;;6.37;100.00;100925.85;4879267;60;1141106;-85
2021/10/16 04:31:57;;;;;;;18.13;4.80;;;;;;;6.33;100.00;100929.56;4832843;60;1141172;-85
2021/10/16 04:37:03;;;;;;;7.20;2.37;;;;;;;6.31;100.00;100934.05;4832589;60;1141303;-86
2021/10/16 04:42:17;;;;;;;7.60;2.37;;;;;;;6.31;100.00;100938.84;4832508;60;1139339;-85
2021/10/16 04:47:17;;;;;;;16.77;3.10;;;;;;;6.33;100.00;100934.81;4832876;60;1139228;-85
2021/10/16 04:52:24;;;;;;;14.25;4.10;;;;;;;6.31;100.00;100928.33;4832420;60;1141082;-86
2021/10/16 04:57:30;;;;;;;14.07;3.77;;;;;;;6.29;100.00;100939.84;4832863;60;1141204;-86
2021/10/16 05:02:36;;;;;;;13.17;3.30;;;;;;;6.29;100.00;100938.53;4842744;60;1141049;-86
2021/10/16 05:07:42;;;;;;;12.63;3.40;;;;;;;6.28;100.00;100937.68;4843800;60;1141033;-85
2021/10/16 05:12:48;;;;;;;11.50;3.30;;;;;;;6.30;100.00;100949.42;4843506;60;1141112;-85
2021/10/16 05:17:55;;;;;;;15.00;3.93;;;;;;;6.30;100.00;100946.33;4848799;60;1141117;-85
2021/10/16 05:23:02;;;;;;;10.43;3.30;;;;;;;6.29;100.00;100951.20;4912565;60;1139074;-85
2021/10/16 05:28:09;;;;;;;9.63;3.20;;;;;;;6.28;100.00;100965.26;4897692;60;1138912;-89
2021/10/16 05:33:16;;;;;;;19.43;5.17;;;;;;;6.27;100.00;100967.97;4882302;60;1136797;-88
2021/10/16 05:38:25;;;;;;;20.43;5.57;;;;;;;6.30;100.00;100971.28;4886267;60;1139373;-90
2021/10/16 05:43:31;;;;;;;15.18;4.60;;;;;;;6.32;100.00;100977.78;4916284;60;1139018;-89
2021/10/16 05:48:37;;;;;;;11.37;4.43;;;;;;;6.33;100.00;100992.61;4905938;60;1139293;-89
2021/10/16 05:53:45;;;;;;;17.60;6.10;;;;;;;6.32;100.00;100994.39;4890256;60;1139225;-89
2021/10/16 05:58:51;;;;;;;8.47;4.50;;;;;;;6.29;100.00;101006.36;4844832;60;1139235;-89
2021/10/16 06:03:57;;;;;;;9.67;3.80;;;;;;;6.34;100.00;101019.27;4844244;60;1136966;-88
2021/10/16 06:09:02;;;;;;;9.97;3.73;;;;;;;6.34;100.00;101020.11;4844435;60;1136870;-88
2021/10/16 06:14:08;;;;;;;15.75;3.70;;;;;;;6.38;100.00;101030.01;4854552;60;1136877;-87
2021/10/16 06:19:14;;;;;;;20.87;5.87;;;;;;;6.42;100.00;101032.84;4906599;60;1138988;-87
2021/10/16 06:24:20;;;;;;;9.85;2.80;;;;;;;6.41;100.00;101035.57;4919581;60;1139026;-88
2021/10/16 06:29:28;;;;;;;11.03;2.60;;;;;;;6.44;100.00;101049.84;4913295;59;1137071;-86
2021/10/16 06:34:35;;;;;;;15.27;4.17;;;;;;;6.49;100.00;101055.72;4895805;60;1139033;-87
2021/10/16 06:39:40;;;;;;;9.30;3.53;;;;;;;6.51;100.00;101054.71;4905488;60;1139312;-89
2021/10/16 06:44:46;;;;;;;18.00;5.57;;;;;;;6.56;100.00;101052.70;4880234;60;1135020;-87
2021/10/16 06:50:09;;;;;;;9.85;3.25;;;;;;;6.58;100.00;101068.36;4847616;60;1141460;-84
2021/10/16 06:55:15;;;;;;;12.57;3.67;;;;;;;6.58;100.00;101070.98;4916517;60;1139224;-87
2021/10/16 07:00:22;;;;;;;16.73;3.70;;;;;;;6.61;100.00;101087.45;4914413;60;1141394;-87
2021/10/16 07:05:29;;;;;;;11.90;4.17;;;;;;;6.65;100.00;101086.38;4904955;60;1141202;-86
2021/10/16 07:10:41;;;;;;;13.13;4.00;;;;;;;6.74;100.00;101092.91;4865504;60;1141153;-86
2021/10/16 07:15:48;;;;;;;28.63;7.77;;;;;;;6.79;100.00;101097.94;4866576;60;1141106;-86
2021/10/16 07:20:54;;;;;;;13.27;5.27;;;;;;;6.85;100.00;101095.00;4848397;60;1141100;-88
2021/10/16 07:26:00;;;;;;;15.27;4.10;;;;;;;6.94;100.00;101099.76;4893674;60;1141074;-90
2021/10/16 07:31:07;;;;;;;21.07;4.50;;;;;;;6.97;100.00;101104.86;4832299;61;1141027;-83
2021/10/16 07:36:13;;;;;;;14.63;4.97;;;;;;;6.97;100.00;101103.08;4836046;60;1141110;-83
2021/10/16 07:41:19;;;;;;;17.73;5.73;;;;;;;7.08;100.00;101110.85;4903935;60;1141155;-81
2021/10/16 07:46:25;;;;;;;13.83;6.70;;;;;;;7.25;100.00;101116.91;4862769;60;1141078;-86
2021/10/16 07:51:30;;;;;;;13.70;4.03;;;;;;;7.34;100.00;101124.28;4900011;60;1141358;-86
2021/10/16 07:56:36;;;;;;;36.97;12.27;;;;;;;7.51;100.00;101119.41;4905618;60;1141070;-88
2021/10/16 08:01:42;;;;;;;22.87;6.10;;;;;;;7.76;100.00;101126.81;4904522;60;1143108;-88
2021/10/16 08:06:48;;;;;;;13.13;5.03;;;;;;;7.94;100.00;101135.47;4866489;60;1140609;-91
2021/10/16 08:11:57;;;;;;;11.70;4.13;;;;;;;8.05;100.00;101135.23;4877865;60;1141123;-94
2021/10/16 08:17:12;;;;;;;;;;;;;;;;;;;;;
2021/10/16 08:22:15;;;;;;;14.40;3.60;;;;;;;8.33;100.00;101135.83;4905212;60;1141206;-91
2021/10/16 08:27:24;;;;;;;14.77;5.00;;;;;;;8.46;98.70;101141.22;4875399;60;1141369;-91
2021/10/16 08:32:32;;;;;;;22.60;5.57;;;;;;;8.61;100.00;101135.52;4835441;60;1138732;-93
2021/10/16 08:37:38;;;;;;;11.60;3.87;;;;;;;8.82;99.83;101135.56;4835392;60;1141029;-92
2021/10/16 08:43:15;;;;;;;12.27;3.63;;;;;;;9.03;97.84;101141.30;4836055;60;1138884;-94
2021/10/16 08:48:24;;;;;;;;;;;;;;;;;;;;;
2021/10/16 08:53:20;;;;;;;12.43;2.93;;;;;;;9.32;97.11;101148.77;4886897;60;1138444;-88
2021/10/16 08:58:26;;;;;;;13.20;3.23;;;;;;;9.47;95.68;101147.80;4892507;60;1139011;-89
2021/10/16 09:03:58;;;;;;;13.07;3.53;;;;;;;9.42;93.69;101152.05;4878052;60;1138957;-92
2021/10/16 09:09:07;;;;;;;7.60;3.33;;;;;;;9.46;94.52;101150.91;4904108;60;1137085;-92
2021/10/16 09:14:24;;;;;;;13.23;2.77;;;;;;;9.56;92.61;101161.73;4911247;60;1134917;-93
2021/10/16 09:19:37;;;;;;;28.83;4.73;;;;;;;9.65;93.75;101157.18;4907907;60;1137139;-92
2021/10/16 09:24:57;;;;;;;11.60;3.27;;;;;;;9.70;90.88;101164.81;4913688;60;1137282;-89
2021/10/16 09:30:08;;;;;;;9.67;3.23;;;;;;;9.82;93.79;101167.52;4906050;60;1136761;-93
2021/10/16 09:35:14;;;;;;;10.20;3.83;;;;;;;9.91;92.40;101182.42;4914531;59;1134792;-88
2021/10/16 09:40:41;;;;;;;15.67;3.30;;;;;;;9.82;91.46;101178.09;4920167;60;1136933;-87
2021/10/16 09:46:09;;;;;;;12.47;2.80;;;;;;;9.72;91.61;101184.91;4875547;60;1139014;-86
2021/10/16 09:51:16;;;;;;;7.30;3.00;;;;;;;9.75;92.00;101178.59;4841798;61;1138951;-87
2021/10/16 09:56:22;;;;;;;14.47;3.43;;;;;;;9.85;92.27;101185.83;4873740;60;1137059;-85
2021/10/16 10:01:28;;;;;;;19.23;2.80;;;;;;;9.90;91.12;101182.05;4919673;60;1139096;-88
2021/10/16 10:06:33;;;;;;;19.80;3.30;;;;;;;9.88;91.07;101188.27;4920548;60;1139063;-92
2021/10/16 10:11:40;;;;;;;10.17;3.13;;;;;;;10.01;90.42;101188.33;4920598;60;1139099;-88
2021/10/16 10:16:50;;;;;;;13.10;4.17;;;;;;;10.05;90.52;101186.34;4920561;60;1141063;-88
2021/10/16 10:21:57;;;;;;;12.55;3.12;;;;;;;10.21;90.09;101187.08;4884588;60;1141220;-88
2021/10/16 10:27:09;;;;;;;16.10;3.70;;;;;;;10.20;89.20;101186.23;4919231;60;1141080;-84
2021/10/16 10:32:30;;;;;;;7.65;3.42;;;;;;;10.17;89.22;101189.03;4919123;60;1141021;-81
2021/10/16 10:37:45;;;;;;;9.67;2.93;;;;;;;10.17;90.46;101192.15;4918514;60;1139041;-81
2021/10/16 10:42:58;;;;;;;8.77;3.00;;;;;;;10.12;89.97;101197.72;4918562;60;1138993;-86
2021/10/16 10:48:11;;;;;;;8.88;3.33;;;;;;;10.10;90.79;101189.52;4918435;60;1139327;-80
2021/10/16 10:53:34;;;;;;;11.67;3.00;;;;;;;10.02;91.35;101190.03;4917757;60;1139268;-84
2021/10/16 10:58:57;;;;;;;12.47;3.63;;;;;;;10.08;89.39;101180.87;4918331;60;1141067;-84
2021/10/16 11:04:04;;;;;;;14.43;3.65;;;;;;;10.29;89.63;101174.66;4916488;60;1141062;-84
2021/10/16 11:09:20;;;;;;;7.97;3.13;;;;;;;10.35;88.18;101177.77;4880303;60;1141177;-84
2021/10/16 11:14:34;;;;;;;11.10;3.07;;;;;;;10.48;86.61;101172.50;4909253;60;1136972;-87
2021/10/16 11:19:56;;;;;;;8.93;3.30;;;;;;;10.61;87.40;101165.91;4909487;60;1139263;-84
2021/10/16 11:25:02;;;;;;;17.10;4.13;;;;;;;10.77;86.29;101159.95;4908813;60;1137156;-89
2021/10/16 11:30:19;;;;;;;12.97;3.63;;;;;;;11.00;85.20;101158.39;4832954;61;1138971;-89
2021/10/16 11:35:25;;;;;;;16.50;2.20;;;;;;;11.31;78.05;101159.23;4832492;61;1139276;-88
2021/10/16 11:40:33;;;;;;;14.77;3.00;;;;;;;11.35;76.40;101148.80;4832951;61;1138966;-86
2021/10/16 11:45:40;;;;;;;11.47;2.33;;;;;;;11.48;77.23;101141.67;4832903;61;1139035;-87
2021/10/16 11:50:53;;;;;;;7.10;2.00;;;;;;;11.72;72.40;101143.53;4832809;61;1139038;-87
2021/10/16 11:56:11;;;;;;;8.13;2.50;;;;;;;11.78;70.04;101144.43;4833046;61;1134847;-85
2021/10/16 12:01:17;;;;;;;7.70;2.23;;;;;;;11.82;70.45;101137.48;4833437;61;1138970;-86
2021/10/16 12:06:23;;;;;;;8.40;2.37;;;;;;;11.86;65.56;101134.13;4832516;61;1139046;-88
2021/10/16 12:11:31;;;;;;;7.20;1.80;;;;;;;12.04;68.23;101132.79;4805995;61;1139172;-86
2021/10/16 12:16:47;;;;;;;5.97;1.80;;;;;;;12.20;64.02;101133.83;4833005;61;1139079;-86
2021/10/16 12:21:55;;;;;;;5.57;1.63;;;;;;;12.00;63.23;101128.66;4832558;61;1139057;-87
2021/10/16 12:27:15;;;;;;;10.48;2.55;;;;;;;12.01;60.03;101127.70;4861794;60;1139158;-87
2021/10/16 12:32:21;;;;;;;4.80;1.90;;;;;;;11.90;61.03;101122.36;4909188;60;1141063;-85
2021/10/16 12:37:27;;;;;;;8.07;2.60;;;;;;;11.86;60.65;101112.45;4908766;60;1139117;-88
2021/10/16 12:42:38;;;;;;;4.85;2.15;;;;;;;11.80;63.81;101118.66;4903326;60;1139244;-91
2021/10/16 12:47:42;;;;;;;7.87;2.37;;;;;;;11.70;62.77;101126.90;4909129;60;1139184;-81
2021/10/16 12:52:47;;;;;;;8.73;2.60;;;;;;;11.63;65.51;101124.68;4853446;60;1138997;-89
2021/10/16 12:58:08;;;;;;;7.23;1.73;;;;;;;11.62;65.15;101119.02;4833907;60;1139149;-86
2021/10/16 13:03:15;;;;;;;7.57;2.20;;;;;;;11.58;60.98;101109.61;4841985;60;1138921;-89
2021/10/16 13:08:21;;;;;;;8.40;2.27;;;;;;;11.54;64.96;101117.41;4905971;60;1139232;-88
2021/10/16 13:13:27;;;;;;;8.63;2.03;;;;;;;11.48;64.99;101118.31;4864400;60;1139243;-86
2021/10/16 13:18:33;;;;;;;5.43;1.60;;;;;;;11.41;64.50;101114.43;4910348;60;1138997;-91
2021/10/16 13:23:39;;;;;;;6.07;1.70;;;;;;;11.41;63.79;101115.75;4909496;60;1139045;-88
2021/10/16 13:28:45;;;;;;;11.63;3.27;;;;;;;11.31;62.57;101119.52;4895565;60;1138935;-87
2021/10/16 13:33:53;;;;;;;7.03;2.03;;;;;;;11.29;66.30;101116.16;4872720;60;1141246;-88
2021/10/16 13:38:59;;;;;;;7.17;1.90;;;;;;;11.63;65.83;101123.83;4852255;60;1139017;-87
2021/10/16 13:44:05;;;;;;;16.00;4.42;;;;;;;11.67;64.27;101127.11;4841956;60;1139018;-86
2021/10/16 13:49:12;;;;;;;4.80;2.50;;;;;;;11.51;65.81;101127.38;4856215;60;1141076;-85
2021/10/16 13:54:18;;;;;;;9.20;2.17;;;;;;;11.35;66.06;101131.59;4904156;60;1139206;-88
2021/10/16 13:59:23;;;;;;;180.00;128.60;;;;;;;11.19;65.54;101137.59;4904546;60;1139033;-87
2021/10/16 14:04:29;;;;;;;14.13;5.97;;;;;;;11.02;66.03;101132.63;4904436;60;1147445;-88
2021/10/16 14:09:36;;;;;;;11.20;2.77;;;;;;;10.89;67.63;101135.29;4911860;60;1141107;-87
2021/10/16 14:14:42;;;;;;;5.10;1.57;;;;;;;10.78;67.67;101136.52;4914837;60;1141079;-88
2021/10/16 14:19:48;;;;;;;6.70;1.90;;;;;;;10.64;66.96;101130.00;4915213;60;1139306;-89
2021/10/16 14:24:54;;;;;;;9.10;2.10;;;;;;;10.57;68.13;101130.40;4914563;60;1136942;-87
2021/10/16 14:30:00;;;;;;;8.87;5.10;;;;;;;10.54;67.35;101135.08;4908022;60;1136947;-87
2021/10/16 14:35:07;;;;;;;7.30;3.43;;;;;;;10.52;68.08;101137.82;4906565;60;1137113;-89
2021/10/16 14:40:13;;;;;;;4.67;2.63;;;;;;;10.54;69.07;101143.83;4911524;60;1136885;-88
2021/10/16 14:45:19;;;;;;;11.07;2.40;;;;;;;10.51;68.84;101144.53;4914439;60;1136995;-87
2021/10/16 14:50:25;;;;;;;6.13;2.73;;;;;;;10.52;69.54;101140.94;4914521;60;1138988;-88
2021/10/16 14:55:31;;;;;;;9.13;2.83;;;;;;;10.52;69.65;101154.16;4914246;60;1136996;-89
2021/10/16 15:00:37;;;;;;;5.93;2.73;;;;;;;10.50;69.29;101159.55;4914719;60;1137001;-88
2021/10/16 15:05:43;;;;;;;7.53;3.00;;;;;;;10.52;69.62;101150.20;4914388;60;1137028;-87
2021/10/16 15:10:51;;;;;;;7.67;3.30;;;;;;;10.60;69.67;101147.87;4915818;60;1136891;-90
2021/10/16 15:15:56;;;;;;;9.30;3.00;;;;;;;10.56;69.98;101152.98;4917349;60;1136849;-88
2021/10/16 15:21:02;;;;;;;8.87;2.80;;;;;;;10.55;70.31;101135.42;4917114;60;1136516;-90
2021/10/16 15:26:08;;;;;;;9.30;3.40;;;;;;;10.54;70.89;101139.04;4915856;60;1136937;-88
2021/10/16 15:31:14;;;;;;;13.40;6.83;;;;;;;10.51;71.24;101153.31;4913311;60;1137196;-90
2021/10/16 15:36:19;;;;;;;11.90;4.90;;;;;;;10.46;71.59;101150.12;4912929;60;1138946;-88
2021/10/16 15:41:25;;;;;;;19.75;9.48;;;;;;;10.37;71.51;101157.36;4912706;60;1139009;-89
2021/10/16 15:46:31;;;;;;;53.27;32.57;;;;;;;10.28;72.10;101153.98;4912718;60;1139182;-90
2021/10/16 15:51:38;;;;;;;52.67;29.30;;;;;;;10.21;72.53;101160.17;4915634;60;1139039;-91
2021/10/16 15:56:44;;;;;;;33.60;20.03;;;;;;;10.12;72.96;101163.36;4918573;60;1139217;-90
2021/10/16 16:13:52;;;;;;;23.83;8.10;;;;;;;9.89;74.42;101167.98;4807466;60;1138991;-89
2021/10/16 16:18:58;;;;;;;16.90;7.73;;;;;;;9.83;74.92;101167.05;4793389;61;1139040;-88
2021/10/16 16:24:05;;;;;;;10.43;6.80;;;;;;;9.80;75.21;101164.12;4783723;61;1138969;-88
2021/10/16 16:29:10;;;;;;;16.20;9.30;;;;;;;9.78;75.36;101169.13;4797974;60;1138497;-91
2021/10/16 16:34:16;;;;;;;37.03;17.93;;;;;;;9.66;75.55;101172.08;4789275;61;1138899;-88
2021/10/16 16:39:22;;;;;;;130.17;59.30;;;;;;;9.59;76.06;101169.94;4791436;60;1141119;-88
2021/10/16 16:44:27;;;;;;;135.67;54.93;;;;;;;9.58;76.58;101177.48;4790399;61;1143289;-88
2021/10/16 16:49:34;;;;;;;71.83;32.00;;;;;;;9.59;76.86;101173.91;4790290;60;1143108;-88
2021/10/16 16:54:39;;;;;;;56.80;26.77;;;;;;;9.63;77.13;101180.19;4783053;61;1141073;-88
2021/10/16 16:59:45;;;;;;;41.23;18.30;;;;;;;9.58;77.54;101180.13;4780997;61;1140951;-86
2021/10/16 17:04:51;;;;;;;41.00;19.77;;;;;;;9.53;77.95;101179.94;4781476;60;1141191;-87
2021/10/16 17:09:58;;;;;;;30.97;14.47;;;;;;;9.49;78.23;101177.57;4784673;60;1141099;-89
2021/10/16 17:15:04;;;;;;;43.33;17.90;;;;;;;9.43;78.47;101174.86;4764772;61;1140612;-88
2021/10/16 17:20:10;;;;;;;41.50;21.60;;;;;;;9.40;78.69;101172.41;4766822;61;1140987;-87
2021/10/16 17:25:16;;;;;;;40.13;16.87;;;;;;;9.37;79.09;101177.88;4765703;61;1141076;-88
2021/10/16 17:30:22;;;;;;;43.73;11.63;;;;;;;9.27;79.32;101179.86;4767463;61;1141181;-88
2021/10/16 17:35:29;;;;;;;52.70;18.70;;;;;;;9.24;79.54;101178.73;4763151;61;1138958;-88
2021/10/16 17:40:35;;;;;;;39.43;13.10;;;;;;;9.16;79.77;101185.81;4760408;61;1139021;-89
2021/10/16 17:45:41;;;;;;;52.50;15.00;;;;;;;9.08;79.89;101182.77;4775731;61;1138956;-88
2021/10/16 17:50:47;;;;;;;56.77;26.87;;;;;;;9.06;79.90;101180.22;4757298;60;1138994;-87
2021/10/16 17:55:53;;;;;;;74.13;31.83;;;;;;;9.05;80.07;101187.76;4770235;61;1138841;-87
2021/10/16 18:01:01;;;;;;;77.43;23.83;;;;;;;8.98;80.32;101185.13;4756920;61;1139198;-86
2021/10/16 18:06:08;;;;;;;50.80;18.97;;;;;;;8.92;80.72;101185.48;4761454;61;1139000;-87
2021/10/16 18:11:16;;;;;;;67.17;27.77;;;;;;;8.90;80.98;101181.23;4767902;61;1139075;-89
2021/10/16 18:16:22;;;;;;;88.13;45.57;;;;;;;8.90;81.16;101179.92;4795548;61;1138981;-88
2021/10/16 18:21:29;;;;;;;173.27;85.53;;;;;;;8.86;81.39;101186.34;4767631;61;1138927;-85
2021/10/16 18:26:35;;;;;;;200.20;86.37;;;;;;;8.81;81.67;101175.59;4773407;61;1141023;-85
2021/10/16 18:31:41;;;;;;;40.83;16.03;;;;;;;8.77;81.96;101180.66;4796833;61;1141083;-86
2021/10/16 18:36:47;;;;;;;57.27;25.93;;;;;;;8.78;82.17;101183.67;4794517;61;1139248;-86
2021/10/16 18:41:53;;;;;;;141.03;68.33;;;;;;;8.81;82.42;101182.65;4788502;61;1138913;-86
2021/10/16 18:46:59;;;;;;;52.20;21.20;;;;;;;8.78;82.84;101190.74;4758120;61;1141105;-88
2021/10/16 18:52:05;;;;;;;37.13;15.73;;;;;;;8.70;83.61;101197.80;4789551;61;1138930;-87
2021/10/16 18:57:10;;;;;;;44.00;16.40;;;;;;;8.65;83.87;101195.05;4786924;61;1139566;-88
2021/10/16 19:02:16;;;;;;;33.50;12.97;;;;;;;8.60;84.03;101195.77;4791671;61;1136871;-88
2021/10/16 19:07:22;;;;;;;33.50;13.93;;;;;;;8.57;84.67;101193.31;4794679;60;1137226;-88
2021/10/16 19:12:28;;;;;;;38.77;19.60;;;;;;;8.60;84.83;101200.58;4799224;61;1141071;-88
2021/10/16 19:17:35;;;;;;;47.70;20.40;;;;;;;8.64;85.13;101198.62;4798105;61;1141087;-89
2021/10/16 19:22:42;;;;;;;58.43;27.20;;;;;;;8.66;85.41;101202.02;4798008;61;1141502;-88
2021/10/16 19:27:50;;;;;;;24.53;10.73;;;;;;;8.69;85.34;101192.62;4822540;61;1141090;-91
2021/10/16 19:32:59;;;;;;;36.63;15.87;;;;;;;8.74;85.67;101200.61;4825173;60;1141045;-88
2021/10/16 19:38:09;;;;;;;33.50;13.60;;;;;;;8.72;85.97;101194.58;4820832;60;1140999;-87
2021/10/16 19:43:15;;;;;;;42.33;14.83;;;;;;;8.72;86.18;101197.22;4821780;61;1140299;-87
2021/10/16 19:48:31;;;;;;;;;;;;;;;;;;;;;
2021/10/16 19:53:35;;;;;;;33.37;12.73;;;;;;;8.75;86.62;101204.95;4796236;61;1141006;-87
2021/10/16 19:58:42;;;;;;;19.27;8.80;;;;;;;8.75;87.11;101204.95;4783822;61;1141219;-87
2021/10/16 20:03:57;;;;;;;;;;;;;;;;;;;;;
2021/10/16 20:09:16;;;;;;;17.67;7.73;;;;;;;8.78;87.47;101203.93;4762912;61;1138951;-87
2021/10/16 20:14:22;;;;;;;23.17;7.70;;;;;;;8.84;87.51;101198.30;4716641;62;1138983;-87
2021/10/16 20:19:29;;;;;;;36.67;15.50;;;;;;;8.92;87.60;101193.41;4748070;62;1138952;-88
2021/10/16 20:24:36;;;;;;;26.90;10.17;;;;;;;8.97;87.79;101194.45;4750531;62;1141233;-88
2021/10/16 20:29:46;;;;;;;23.90;9.67;;;;;;;9.02;87.64;101194.53;4743594;62;1141138;-87
2021/10/16 20:34:53;;;;;;;21.60;9.57;;;;;;;9.03;87.33;101194.06;4667244;63;1138975;-87
2021/10/16 20:39:58;;;;;;;37.03;12.23;;;;;;;9.01;87.58;101192.83;4606064;60;1138990;-89
2021/10/16 20:45:07;;;;;;;22.67;9.33;;;;;;;8.98;87.51;101187.77;4600944;61;1141041;-86
2021/10/16 20:50:13;;;;;;;25.63;9.27;;;;;;;8.98;87.58;101185.60;4609186;62;1139039;-87
2021/10/16 20:55:20;;;;;;;26.90;9.33;;;;;;;8.93;87.92;101186.34;4596355;62;1138972;-87
2021/10/16 21:00:25;;;;;;;23.10;7.90;;;;;;;8.88;88.01;101180.01;4603279;63;1138942;-89
2021/10/16 21:05:35;;;;;;;21.07;7.77;;;;;;;8.83;88.61;101178.61;4601884;63;1139171;-89
2021/10/16 21:10:44;;;;;;;28.80;8.17;;;;;;;8.79;88.72;101181.89;4602730;62;1139022;-87
2021/10/16 21:15:50;;;;;;;19.13;7.60;;;;;;;8.80;88.77;101183.59;4756199;61;1139048;-89
2021/10/16 21:20:56;;;;;;;25.53;7.13;;;;;;;8.81;88.99;101181.33;4717124;62;1138934;-87
2021/10/16 21:26:02;;;;;;;16.30;5.17;;;;;;;8.81;89.15;101187.45;4714296;61;1138917;-87
2021/10/16 21:31:07;;;;;;;22.17;6.40;;;;;;;8.88;89.22;101187.07;4707713;62;1139157;-87
2021/10/16 21:36:13;;;;;;;11.50;5.87;;;;;;;8.89;89.30;101179.54;4720649;61;1138982;-87
2021/10/16 21:41:21;;;;;;;19.67;5.43;;;;;;;8.89;89.46;101180.39;4705013;61;1137036;-89
2021/10/16 21:46:27;;;;;;;16.00;6.40;;;;;;;8.90;89.44;101177.28;4730700;62;1136905;-88
2021/10/16 21:51:33;;;;;;;19.20;6.50;;;;;;;8.90;89.37;101178.60;4730438;62;1136963;-88
2021/10/16 21:56:41;;;;;;;21.03;5.70;;;;;;;8.89;89.50;101179.07;4675060;62;1136838;-88
2021/10/16 22:01:46;;;;;;;11.60;5.40;;;;;;;8.88;89.55;101176.05;4663185;62;1137070;-88
2021/10/16 22:06:52;;;;;;;12.47;5.97;;;;;;;8.89;89.59;101176.91;4663086;63;1136972;-88
2021/10/16 22:11:57;;;;;;;16.93;6.23;;;;;;;8.88;89.68;101175.20;4663133;62;1137160;-91
2021/10/16 22:17:04;;;;;;;15.97;6.17;;;;;;;8.85;89.73;101181.53;4662778;63;1137220;-89
2021/10/16 22:22:10;;;;;;;13.17;5.47;;;;;;;8.80;89.83;101173.04;4663048;63;1136934;-88
2021/10/16 22:27:16;;;;;;;17.40;6.37;;;;;;;8.76;90.27;101175.47;4650512;63;1136894;-90
2021/10/16 22:32:21;;;;;;;18.10;6.70;;;;;;;8.76;90.30;101174.16;4598254;62;1137036;-87
2021/10/16 22:37:27;;;;;;;14.13;6.27;;;;;;;8.76;90.37;101175.00;4677769;62;1137078;-89
2021/10/16 22:42:37;;;;;;;14.03;5.63;;;;;;;8.74;90.66;101178.20;4677714;61;1136992;-89
2021/10/16 22:47:43;;;;;;;21.77;7.23;;;;;;;8.74;90.56;101173.39;4677606;63;1136962;-90
2021/10/16 22:52:49;;;;;;;15.33;5.97;;;;;;;8.67;91.07;101167.66;4677941;61;1136925;-87
2021/10/16 22:57:55;;;;;;;13.87;5.10;;;;;;;8.67;91.07;101167.66;4677660;62;1136918;-87
2021/10/16 23:03:01;;;;;;;10.43;5.17;;;;;;;8.69;91.10;101180.28;4677691;63;1136924;-87
2021/10/16 23:08:07;;;;;;;13.70;5.30;;;;;;;8.69;91.02;101186.02;4677855;62;1134727;-90
2021/10/16 23:13:13;;;;;;;17.50;5.53;;;;;;;8.71;91.15;101187.61;4677573;63;1134906;-87
2021/10/16 23:18:20;;;;;;;12.73;5.12;;;;;;;8.69;91.29;101175.47;4730115;61;1138953;-89
2021/10/16 23:23:27;;;;;;;11.37;5.20;;;;;;;8.66;91.23;101173.86;4633194;62;1138951;-86
2021/10/16 23:28:33;;;;;;;15.47;6.10;;;;;;;8.67;91.08;101186.11;4737123;61;1139132;-90